Time;durP1;ratioP1;P1;durP2;ratioP2;P2;SDS_P1;SDS_P2;PMS_P1;PMS_P2;Temp;Humidity;BMP_temperature;BMP_pressure;BME280_temperature;BME280_humidity;BME280_pressure;Samples;Min_cycle;Max_cycle;Signal;HPM_P1;HPM_P2
2023/12/26 00:02:24;;;;;;;3.73;1.60;;;11.60;99.90;;;;;;5052912;28;20178;-85
2023/12/26 00:04:49;;;;;;;3.80;1.80;;;11.50;99.90;;;;;;5054357;28;20584;-83
2023/12/26 00:07:15;;;;;;;3.50;1.53;;;11.40;99.90;;;;;;5052336;28;20397;-82
2023/12/26 00:09:41;;;;;;;4.27;1.80;;;11.40;99.90;;;;;;5053026;28;20181;-85
2023/12/26 00:12:07;;;;;;;5.13;1.47;;;11.40;99.90;;;;;;5053081;28;20262;-84
2023/12/26 00:14:33;;;;;;;3.27;1.50;;;11.40;99.90;;;;;;5053070;28;20177;-84
2023/12/26 00:16:58;;;;;;;2.73;1.53;;;11.30;99.90;;;;;;5052790;28;20703;-83
2023/12/26 00:19:24;;;;;;;4.57;1.60;;;11.30;99.90;;;;;;5053015;28;20173;-83
2023/12/26 00:21:50;;;;;;;5.63;1.60;;;11.20;99.90;;;;;;5052717;28;20227;-83
2023/12/26 00:24:15;;;;;;;3.83;1.77;;;11.30;99.90;;;;;;5052746;28;20205;-83
2023/12/26 00:26:42;;;;;;;3.50;1.90;;;11.30;99.90;;;;;;5052598;28;20316;-85
2023/12/26 00:29:08;;;;;;;5.23;1.80;;;11.30;99.90;;;;;;5052816;28;20171;-83
2023/12/26 00:31:33;;;;;;;5.23;1.87;;;11.30;99.90;;;;;;5052766;28;20175;-88
2023/12/26 00:33:59;;;;;;;4.47;1.30;;;11.30;99.90;;;;;;5052520;28;20187;-89
2023/12/26 00:36:25;;;;;;;5.67;1.50;;;11.20;99.90;;;;;;5052345;28;20177;-83
2023/12/26 00:38:50;;;;;;;3.43;1.70;;;11.20;99.90;;;;;;5052582;28;20169;-84
2023/12/26 00:41:17;;;;;;;2.93;1.83;;;11.20;99.90;;;;;;5052397;28;20235;-82
2023/12/26 00:43:42;;;;;;;5.93;1.60;;;11.20;99.90;;;;;;5052492;28;20274;-85
2023/12/26 00:46:09;;;;;;;3.63;1.60;;;11.20;99.90;;;;;;5053450;28;20293;-84
2023/12/26 00:48:36;;;;;;;3.03;1.40;;;11.20;99.90;;;;;;5052393;28;20205;-84
2023/12/26 00:51:02;;;;;;;3.30;1.77;;;11.30;99.90;;;;;;5053533;28;20244;-83
2023/12/26 00:53:29;;;;;;;7.83;1.70;;;11.30;99.90;;;;;;5052232;28;20591;-83
2023/12/26 00:55:54;;;;;;;6.20;1.90;;;11.30;99.90;;;;;;5052223;28;20208;-82
2023/12/26 00:58:20;;;;;;;6.60;1.60;;;11.30;99.90;;;;;;5052122;28;20169;-83
2023/12/26 01:00:46;;;;;;;5.37;1.63;;;11.30;99.90;;;;;;5052226;28;20174;-83
2023/12/26 01:03:13;;;;;;;7.27;2.10;;;11.30;99.90;;;;;;5051917;28;20340;-84
2023/12/26 01:05:38;;;;;;;6.33;2.10;;;11.30;99.90;;;;;;5051827;28;20210;-83
2023/12/26 01:08:05;;;;;;;4.90;1.83;;;11.40;99.90;;;;;;5051908;28;20208;-84
2023/12/26 01:10:30;;;;;;;5.77;2.10;;;11.30;99.90;;;;;;5051996;28;20258;-83
2023/12/26 01:12:56;;;;;;;6.33;1.90;;;11.40;99.90;;;;;;5051892;28;20260;-83
2023/12/26 01:15:22;;;;;;;4.90;1.97;;;11.40;99.90;;;;;;5052144;28;20194;-83
2023/12/26 01:17:47;;;;;;;6.13;2.00;;;11.40;99.90;;;;;;5053254;28;20165;-83
2023/12/26 01:20:13;;;;;;;3.60;2.00;;;11.40;99.90;;;;;;5050880;28;20180;-83
2023/12/26 01:22:39;;;;;;;6.80;2.00;;;11.30;99.90;;;;;;5051887;28;20638;-83
2023/12/26 01:25:05;;;;;;;8.23;2.27;;;11.30;99.90;;;;;;5052775;28;20189;-82
2023/12/26 01:27:33;;;;;;;5.13;2.57;;;11.30;99.90;;;;;;5051846;28;20200;-83
2023/12/26 01:30:01;;;;;;;6.47;2.30;;;11.30;99.90;;;;;;5051933;28;20581;-83
2023/12/26 01:32:27;;;;;;;5.47;2.13;;;11.30;99.90;;;;;;5051704;28;20176;-84
2023/12/26 01:34:53;;;;;;;8.03;2.57;;;11.30;99.90;;;;;;5051460;28;20583;-84
2023/12/26 01:37:18;;;;;;;8.93;2.20;;;11.20;99.90;;;;;;5051509;28;20169;-83
2023/12/26 01:39:44;;;;;;;5.57;2.23;;;11.20;99.90;;;;;;5051608;28;20651;-84
2023/12/26 01:42:10;;;;;;;5.07;2.00;;;11.20;99.90;;;;;;5052013;28;20224;-82
2023/12/26 01:44:36;;;;;;;10.27;2.53;;;11.30;99.90;;;;;;5051807;28;20181;-83
2023/12/26 01:47:01;;;;;;;10.43;2.57;;;11.20;99.90;;;;;;5051637;28;20213;-82
2023/12/26 01:49:27;;;;;;;8.60;2.70;;;11.20;99.90;;;;;;5051219;28;20509;-83
2023/12/26 01:51:54;;;;;;;6.40;2.37;;;11.20;99.90;;;;;;5051686;28;20170;-83
2023/12/26 01:54:24;;;;;;;8.77;2.20;;;11.10;99.90;;;;;;5051598;28;20254;-83
2023/12/26 01:56:50;;;;;;;7.40;2.33;;;11.10;99.90;;;;;;5051639;28;20295;-83
2023/12/26 01:59:16;;;;;;;7.73;2.50;;;11.10;99.90;;;;;;5051257;28;20173;-83
2023/12/26 02:01:42;;;;;;;8.97;2.27;;;11.20;99.90;;;;;;5051619;28;20180;-82
2023/12/26 02:04:07;;;;;;;7.67;2.40;;;11.20;99.90;;;;;;5051193;28;20189;-83
2023/12/26 02:06:35;;;;;;;9.23;2.60;;;11.20;99.90;;;;;;5051517;28;20683;-82
2023/12/26 02:09:03;;;;;;;8.40;2.50;;;11.10;99.90;;;;;;5051961;28;20574;-83
2023/12/26 02:11:28;;;;;;;9.93;2.47;;;11.20;99.90;;;;;;5051559;28;20663;-83
2023/12/26 02:13:55;;;;;;;4.97;2.20;;;11.10;99.90;;;;;;5051124;28;20174;-83
2023/12/26 02:16:24;;;;;;;9.27;2.37;;;11.20;99.90;;;;;;5051517;28;20173;-83
2023/12/26 02:18:50;;;;;;;5.67;2.60;;;11.10;99.90;;;;;;5051205;28;20253;-83
2023/12/26 02:21:16;;;;;;;6.37;2.40;;;11.10;99.90;;;;;;5051476;28;20173;-84
2023/12/26 02:23:42;;;;;;;6.40;2.50;;;11.00;99.90;;;;;;5051218;28;20251;-84
2023/12/26 02:26:08;;;;;;;9.10;2.17;;;11.00;99.90;;;;;;5051396;28;20220;-83
2023/12/26 02:28:36;;;;;;;6.77;2.33;;;10.90;99.90;;;;;;5051154;28;20532;-84
2023/12/26 02:31:03;;;;;;;8.80;2.67;;;11.00;99.90;;;;;;5052297;28;20184;-83
2023/12/26 02:33:30;;;;;;;6.00;2.83;;;10.90;99.90;;;;;;5054746;28;20214;-81
2023/12/26 02:35:57;;;;;;;5.83;2.70;;;10.80;99.90;;;;;;5055046;28;20655;-82
2023/12/26 02:38:22;;;;;;;8.83;3.00;;;10.90;99.90;;;;;;5054886;28;20178;-83
2023/12/26 02:40:52;;;;;;;9.60;3.17;;;10.90;99.90;;;;;;5055045;28;20699;-83
2023/12/26 02:43:25;;;;;;;8.17;2.70;;;10.90;99.90;;;;;;5054637;28;20173;-84
2023/12/26 02:45:51;;;;;;;9.80;2.80;;;10.90;99.90;;;;;;5054111;28;20626;-82
2023/12/26 02:48:17;;;;;;;12.03;3.20;;;10.80;99.90;;;;;;5054852;28;20267;-83
2023/12/26 02:50:44;;;;;;;11.23;3.73;;;10.90;99.90;;;;;;5054453;28;20534;-83
2023/12/26 02:53:09;;;;;;;9.53;2.70;;;10.90;99.90;;;;;;5054845;28;20536;-83
2023/12/26 02:55:35;;;;;;;10.13;3.30;;;10.90;99.90;;;;;;5054632;28;20176;-83
2023/12/26 02:58:01;;;;;;;9.93;3.30;;;10.90;99.90;;;;;;5054794;28;20173;-85
2023/12/26 03:00:27;;;;;;;8.57;3.23;;;11.00;99.90;;;;;;5054206;28;20260;-83
2023/12/26 03:02:52;;;;;;;11.23;3.30;;;11.00;99.90;;;;;;5054492;28;20210;-83
2023/12/26 03:05:18;;;;;;;7.73;3.30;;;11.00;99.90;;;;;;5055360;28;20193;-82
2023/12/26 03:07:44;;;;;;;11.17;3.37;;;11.00;99.90;;;;;;5054664;28;20188;-84
2023/12/26 03:10:09;;;;;;;9.40;3.60;;;10.90;99.90;;;;;;5054384;28;20175;-83
2023/12/26 03:12:36;;;;;;;9.73;2.70;;;11.00;99.90;;;;;;5054424;28;20739;-83
2023/12/26 03:15:02;;;;;;;8.37;2.97;;;11.00;99.90;;;;;;5053763;28;20180;-83
2023/12/26 03:17:29;;;;;;;8.67;2.47;;;11.10;99.90;;;;;;5054322;28;20660;-82
2023/12/26 03:19:54;;;;;;;5.63;2.43;;;11.10;99.90;;;;;;5054184;28;20625;-83
2023/12/26 03:22:20;;;;;;;9.50;3.00;;;11.10;99.90;;;;;;5054108;28;20180;-83
2023/12/26 03:24:47;;;;;;;6.60;2.50;;;11.10;99.90;;;;;;5054129;28;20218;-83
2023/12/26 03:27:13;;;;;;;9.10;2.80;;;11.10;99.90;;;;;;5053937;28;20661;-84
2023/12/26 03:29:39;;;;;;;8.23;2.60;;;11.00;99.90;;;;;;5053828;28;20169;-83
2023/12/26 03:32:07;;;;;;;8.73;2.87;;;11.10;99.90;;;;;;5054104;28;20227;-83
2023/12/26 03:34:33;;;;;;;6.00;2.57;;;11.10;99.90;;;;;;5053784;28;20178;-83
2023/12/26 03:36:58;;;;;;;4.40;1.87;;;11.00;99.90;;;;;;5054105;28;20173;-83
2023/12/26 03:39:24;;;;;;;4.50;2.40;;;11.00;99.90;;;;;;5054138;28;20606;-84
2023/12/26 03:41:50;;;;;;;4.33;2.17;;;11.10;99.90;;;;;;5053687;28;20177;-83
2023/12/26 03:44:16;;;;;;;9.07;2.87;;;11.10;99.90;;;;;;5052577;28;20178;-83
2023/12/26 03:46:42;;;;;;;5.70;2.57;;;11.00;99.90;;;;;;5053725;28;20223;-82
2023/12/26 03:49:08;;;;;;;7.27;2.30;;;11.10;99.90;;;;;;5053904;28;20625;-83
2023/12/26 03:51:34;;;;;;;4.43;2.30;;;11.10;99.90;;;;;;5053644;28;20277;-83
2023/12/26 03:54:00;;;;;;;7.97;2.53;;;11.00;99.90;;;;;;5053644;28;20231;-83
2023/12/26 03:56:30;;;;;;;5.77;2.37;;;11.10;99.90;;;;;;5053446;28;20583;-88
2023/12/26 03:58:56;;;;;;;5.23;2.40;;;11.10;99.90;;;;;;5053108;28;20648;-83
2023/12/26 04:01:22;;;;;;;5.30;2.40;;;11.10;99.90;;;;;;5053314;28;20181;-84
2023/12/26 04:03:48;;;;;;;6.87;2.27;;;11.10;99.90;;;;;;5053234;28;20525;-83
2023/12/26 04:06:14;;;;;;;4.67;2.07;;;11.20;99.90;;;;;;5054326;28;20667;-83
2023/12/26 04:08:40;;;;;;;4.70;2.10;;;11.20;99.90;;;;;;5053473;28;20182;-84
2023/12/26 04:11:05;;;;;;;6.07;2.30;;;11.10;99.90;;;;;;5054460;28;20679;-83
2023/12/26 04:13:31;;;;;;;4.03;1.73;;;11.10;99.90;;;;;;5052714;28;20181;-83
2023/12/26 04:15:57;;;;;;;3.30;1.83;;;11.10;99.90;;;;;;5053401;28;20179;-83
2023/12/26 04:18:23;;;;;;;4.57;2.23;;;11.10;99.90;;;;;;5053126;28;20177;-83
2023/12/26 04:20:48;;;;;;;3.97;2.17;;;11.20;99.90;;;;;;5053180;28;20174;-85
2023/12/26 04:23:14;;;;;;;4.07;2.20;;;11.20;99.90;;;;;;5052902;28;20591;-83
2023/12/26 04:25:40;;;;;;;4.87;2.70;;;11.20;99.90;;;;;;5053885;28;20288;-82
2023/12/26 04:28:05;;;;;;;6.93;2.73;;;11.30;99.90;;;;;;5055842;28;20276;-82
2023/12/26 04:30:31;;;;;;;7.23;3.10;;;11.30;99.90;;;;;;5056435;28;20701;-82
2023/12/26 04:32:57;;;;;;;6.60;2.77;;;11.30;99.90;;;;;;5056606;28;20640;-82
2023/12/26 04:35:22;;;;;;;8.40;3.20;;;11.30;99.90;;;;;;5052976;28;20632;-82
2023/12/26 04:37:48;;;;;;;6.50;3.67;;;11.20;99.90;;;;;;5052880;28;20173;-82
2023/12/26 04:40:14;;;;;;;5.40;4.10;;;11.20;99.90;;;;;;5052905;28;20593;-83
2023/12/26 04:42:40;;;;;;;7.83;3.83;;;11.30;99.90;;;;;;5051831;28;20263;-84
2023/12/26 04:45:06;;;;;;;9.00;4.37;;;11.30;99.90;;;;;;5052210;28;20245;-83
2023/12/26 04:47:31;;;;;;;8.27;4.03;;;11.30;99.90;;;;;;5052210;28;20177;-82
2023/12/26 04:49:59;;;;;;;8.37;4.23;;;11.30;99.90;;;;;;5052253;28;20169;-81
2023/12/26 04:52:25;;;;;;;10.13;4.97;;;11.30;99.90;;;;;;5052420;28;20257;-84
2023/12/26 04:54:51;;;;;;;10.03;4.47;;;11.30;99.90;;;;;;5052443;28;20169;-82
2023/12/26 04:57:17;;;;;;;9.77;4.50;;;11.30;99.90;;;;;;5051988;28;20657;-82
2023/12/26 04:59:43;;;;;;;7.50;4.40;;;11.30;99.90;;;;;;5052299;28;20181;-83
2023/12/26 05:02:08;;;;;;;10.13;4.83;;;11.30;99.90;;;;;;5052040;28;20170;-83
2023/12/26 05:04:34;;;;;;;9.43;4.57;;;11.40;99.90;;;;;;5052051;28;20181;-83
2023/12/26 05:07:00;;;;;;;7.50;4.50;;;11.40;99.90;;;;;;5051882;28;20216;-82
2023/12/26 05:09:26;;;;;;;7.23;4.40;;;11.40;99.90;;;;;;5052051;28;20665;-82
2023/12/26 05:11:52;;;;;;;9.17;4.37;;;11.40;99.90;;;;;;5051603;28;20174;-82
2023/12/26 05:14:20;;;;;;;7.70;4.40;;;11.50;99.90;;;;;;5051853;28;20180;-82
2023/12/26 05:16:48;;;;;;;12.63;4.33;;;11.40;99.90;;;;;;5052110;28;20267;-82
2023/12/26 05:19:15;;;;;;;10.47;4.17;;;11.40;99.90;;;;;;5051769;28;20173;-82
2023/12/26 05:21:40;;;;;;;10.10;4.37;;;11.40;99.90;;;;;;5051790;28;20266;-83
2023/12/26 05:24:06;;;;;;;6.40;4.10;;;11.50;99.90;;;;;;5051723;28;20647;-83
2023/12/26 05:26:42;;;;;;;9.33;4.50;;;11.50;99.90;;;;;;5051678;28;20221;-82
2023/12/26 05:29:09;;;;;;;9.43;4.37;;;11.50;99.90;;;;;;5051911;28;20624;-82
2023/12/26 05:31:35;;;;;;;5.63;3.60;;;11.50;99.90;;;;;;5052092;28;20233;-83
2023/12/26 05:34:03;;;;;;;10.47;3.97;;;11.60;99.90;;;;;;5051804;28;20206;-85
2023/12/26 05:36:28;;;;;;;10.23;4.00;;;11.60;99.90;;;;;;5051734;28;20594;-84
2023/12/26 05:38:54;;;;;;;8.17;3.40;;;11.70;99.90;;;;;;5051693;28;20209;-83
2023/12/26 05:41:20;;;;;;;11.17;4.00;;;11.60;99.90;;;;;;5051481;28;20172;-84
2023/12/26 05:43:45;;;;;;;11.10;3.77;;;11.70;99.90;;;;;;5051843;28;20182;-83
2023/12/26 05:46:11;;;;;;;5.00;3.20;;;11.60;99.90;;;;;;5052901;28;20550;-82
2023/12/26 05:48:37;;;;;;;5.80;3.20;;;11.60;99.90;;;;;;5051608;28;20232;-83
2023/12/26 05:51:03;;;;;;;8.77;3.60;;;11.50;99.90;;;;;;5051656;28;20185;-84
2023/12/26 05:53:30;;;;;;;9.40;3.40;;;11.50;99.90;;;;;;5051621;28;20560;-84
2023/12/26 05:55:57;;;;;;;5.13;2.80;;;11.50;99.90;;;;;;5051572;28;20509;-83
2023/12/26 05:58:23;;;;;;;6.70;2.67;;;11.60;99.90;;;;;;5051370;28;20631;-83
2023/12/26 06:00:49;;;;;;;8.63;2.80;;;11.60;99.90;;;;;;5051527;28;20201;-83
2023/12/26 06:03:15;;;;;;;7.63;2.60;;;11.60;99.90;;;;;;5051302;28;20293;-83
2023/12/26 06:05:41;;;;;;;9.73;2.50;;;11.60;99.90;;;;;;5051896;28;20204;-86
2023/12/26 06:08:07;;;;;;;5.27;2.77;;;11.60;99.90;;;;;;5055368;28;20179;-82
2023/12/26 06:10:33;;;;;;;12.20;2.90;;;11.50;99.90;;;;;;5055149;28;20204;-82
2023/12/26 06:12:58;;;;;;;6.13;2.43;;;11.60;99.90;;;;;;5055358;28;20179;-83
2023/12/26 06:15:24;;;;;;;8.70;3.07;;;11.60;99.90;;;;;;5055225;28;20713;-83
2023/12/26 06:17:50;;;;;;;7.77;2.40;;;11.60;99.90;;;;;;5055307;28;20179;-82
2023/12/26 06:20:16;;;;;;;11.23;3.37;;;11.60;99.90;;;;;;5055584;28;20629;-82
2023/12/26 06:22:42;;;;;;;7.77;3.00;;;11.60;99.90;;;;;;5055178;28;20189;-82
2023/12/26 06:25:08;;;;;;;9.27;2.90;;;11.60;99.90;;;;;;5054499;28;20195;-83
2023/12/26 06:27:35;;;;;;;7.37;2.93;;;11.60;99.90;;;;;;5055403;28;20240;-82
2023/12/26 06:30:00;;;;;;;11.07;3.23;;;11.60;99.90;;;;;;5055102;28;20269;-82
2023/12/26 06:32:28;;;;;;;6.63;2.73;;;11.60;99.90;;;;;;5055049;28;20265;-84
2023/12/26 06:34:54;;;;;;;7.33;3.23;;;11.80;99.90;;;;;;5055001;28;20180;-83
2023/12/26 06:37:19;;;;;;;9.73;3.57;;;11.70;99.90;;;;;;5054926;28;20204;-83
2023/12/26 06:39:45;;;;;;;8.60;3.27;;;11.80;99.90;;;;;;5054614;28;20628;-82
2023/12/26 06:42:14;;;;;;;5.53;2.63;;;11.70;99.90;;;;;;5056120;28;20182;-83
2023/12/26 06:44:40;;;;;;;9.40;3.00;;;11.70;99.90;;;;;;5054681;28;20183;-82
2023/12/26 06:47:06;;;;;;;8.27;2.77;;;11.60;99.90;;;;;;5056038;28;20211;-82
2023/12/26 06:49:32;;;;;;;12.50;3.40;;;11.60;99.90;;;;;;5054594;28;20178;-83
2023/12/26 06:51:59;;;;;;;6.83;2.50;;;11.50;99.90;;;;;;5054495;28;20185;-83
2023/12/26 06:54:25;;;;;;;7.03;2.27;;;11.40;99.90;;;;;;5054254;28;20191;-83
2023/12/26 06:56:51;;;;;;;9.60;2.40;;;11.40;99.90;;;;;;5054839;28;20177;-82
2023/12/26 06:59:16;;;;;;;8.60;2.90;;;11.40;99.90;;;;;;5054371;28;20177;-83
2023/12/26 07:01:46;;;;;;;6.83;1.87;;;11.40;99.90;;;;;;5054391;28;20652;-82
2023/12/26 07:04:12;;;;;;;6.23;1.87;;;11.40;99.90;;;;;;5054375;28;20629;-83
2023/12/26 07:06:38;;;;;;;6.83;1.90;;;11.30;99.90;;;;;;5054203;28;20676;-82
2023/12/26 07:09:03;;;;;;;5.27;1.47;;;11.30;99.90;;;;;;5054397;28;20268;-82
2023/12/26 07:11:29;;;;;;;8.30;1.80;;;11.30;99.90;;;;;;5054353;28;20185;-84
2023/12/26 07:13:55;;;;;;;6.20;1.53;;;11.30;99.90;;;;;;5055385;28;20619;-82
2023/12/26 07:16:20;;;;;;;6.37;2.17;;;11.30;99.90;;;;;;5054337;28;20220;-82
2023/12/26 07:18:47;;;;;;;7.70;1.53;;;11.20;98.90;;;;;;5052782;28;20697;-82
2023/12/26 07:21:16;;;;;;;7.87;1.67;;;11.20;97.40;;;;;;5053694;28;20209;-81
2023/12/26 07:23:46;;;;;;;6.60;1.80;;;11.10;93.50;;;;;;5053912;28;20205;-82
2023/12/26 07:26:12;;;;;;;8.70;2.13;;;11.10;93.30;;;;;;5053835;28;20297;-83
2023/12/26 07:28:38;;;;;;;8.43;2.13;;;11.10;91.70;;;;;;5055080;28;20212;-83
2023/12/26 07:31:03;;;;;;;10.47;1.90;;;11.10;89.20;;;;;;5053830;28;20186;-83
2023/12/26 07:33:29;;;;;;;9.73;2.43;;;11.10;88.70;;;;;;5053730;28;20706;-81
2023/12/26 07:35:57;;;;;;;6.73;1.77;;;11.10;87.70;;;;;;5053557;28;20504;-82
2023/12/26 07:38:24;;;;;;;9.93;2.00;;;11.00;85.90;;;;;;5053848;28;20646;-81
2023/12/26 07:40:50;;;;;;;5.50;1.60;;;11.00;88.50;;;;;;5054838;28;20672;-82
2023/12/26 07:43:16;;;;;;;6.83;1.70;;;11.00;85.10;;;;;;5053453;28;20180;-82
2023/12/26 07:45:42;;;;;;;5.47;1.93;;;11.00;80.30;;;;;;5053072;28;20368;-81
2023/12/26 07:48:10;;;;;;;7.70;2.03;;;10.90;74.50;;;;;;5053360;28;20638;-82
2023/12/26 07:50:36;;;;;;;6.97;1.50;;;10.90;73.70;;;;;;5053420;28;20173;-82
2023/12/26 07:53:02;;;;;;;8.33;2.23;;;10.90;71.10;;;;;;5053290;28;20174;-81
2023/12/26 07:55:29;;;;;;;6.83;2.07;;;10.90;71.50;;;;;;5053244;28;20205;-82
2023/12/26 07:57:55;;;;;;;9.37;1.90;;;10.90;69.00;;;;;;5053025;28;20176;-83
2023/12/26 08:00:20;;;;;;;9.87;2.23;;;10.80;71.50;;;;;;5053208;28;20180;-83
2023/12/26 08:02:46;;;;;;;8.47;2.07;;;10.90;70.90;;;;;;5052868;28;20185;-83
2023/12/26 08:05:12;;;;;;;7.13;2.00;;;10.90;69.10;;;;;;5052694;28;20177;-82
2023/12/26 08:07:37;;;;;;;10.77;3.87;;;10.90;62.80;;;;;;5052856;28;20193;-82
2023/12/26 08:10:03;;;;;;;8.30;2.77;;;10.80;66.50;;;;;;5052998;28;20226;-81
2023/12/26 08:12:29;;;;;;;13.40;5.90;;;10.80;66.10;;;;;;5052440;28;20239;-82
2023/12/26 08:14:55;;;;;;;9.17;4.10;;;10.70;68.40;;;;;;5053040;28;20204;-82
2023/12/26 08:17:20;;;;;;;8.07;2.67;;;10.70;69.80;;;;;;5052667;28;20239;-82
2023/12/26 08:19:46;;;;;;;7.53;2.30;;;10.70;71.90;;;;;;5052387;28;20176;-83
2023/12/26 08:22:12;;;;;;;10.13;2.17;;;10.70;72.50;;;;;;5052564;28;20729;-82
2023/12/26 08:24:37;;;;;;;8.57;2.30;;;10.70;74.20;;;;;;5052716;28;20243;-82
2023/12/26 08:27:03;;;;;;;8.23;3.03;;;10.70;75.70;;;;;;5052437;28;20217;-83
2023/12/26 08:29:29;;;;;;;9.77;3.03;;;10.70;78.10;;;;;;5051942;28;20169;-81
2023/12/26 08:31:54;;;;;;;10.47;4.57;;;10.70;80.30;;;;;;5052195;28;20262;-81
2023/12/26 08:34:20;;;;;;;18.50;8.50;;;10.70;81.90;;;;;;5052834;28;20739;-80
2023/12/26 08:36:46;;;;;;;17.43;8.47;;;10.60;84.20;;;;;;5052830;28;20173;-80
2023/12/26 08:39:12;;;;;;;11.77;3.13;;;10.60;84.30;;;;;;5052249;28;20165;-82
2023/12/26 08:41:38;;;;;;;8.60;2.17;;;10.70;86.60;;;;;;5051997;28;20265;-83
2023/12/26 08:44:03;;;;;;;8.20;2.20;;;10.70;87.80;;;;;;5052418;28;20552;-82
2023/12/26 08:46:29;;;;;;;7.50;2.30;;;10.70;88.50;;;;;;5052259;28;20255;-82
2023/12/26 08:48:55;;;;;;;11.87;3.30;;;10.80;87.90;;;;;;5051565;28;20189;-81
2023/12/26 08:51:21;;;;;;;13.40;2.30;;;10.80;90.00;;;;;;5051696;28;20180;-83
2023/12/26 08:53:47;;;;;;;11.50;2.90;;;10.80;91.10;;;;;;5051814;28;20170;-84
2023/12/26 08:56:13;;;;;;;10.57;3.23;;;10.90;90.40;;;;;;5051819;28;20186;-82
2023/12/26 08:58:39;;;;;;;14.90;2.33;;;10.90;89.00;;;;;;5051982;28;20640;-82
2023/12/26 09:01:06;;;;;;;7.90;2.07;;;10.90;89.00;;;;;;5051946;28;20215;-83
2023/12/26 09:03:32;;;;;;;7.30;2.07;;;10.90;92.20;;;;;;5051634;28;20606;-82
2023/12/26 09:05:58;;;;;;;9.40;2.77;;;10.80;92.10;;;;;;5052117;28;20208;-81
2023/12/26 09:08:23;;;;;;;8.20;2.23;;;10.80;91.90;;;;;;5051467;28;20180;-82
2023/12/26 09:10:50;;;;;;;8.83;2.30;;;10.90;92.60;;;;;;5051852;28;20205;-83
2023/12/26 09:13:20;;;;;;;11.60;2.37;;;10.80;92.40;;;;;;5051629;28;20543;-82
2023/12/26 09:15:47;;;;;;;11.20;2.93;;;10.70;94.10;;;;;;5051719;28;20256;-82
2023/12/26 09:18:13;;;;;;;9.13;2.77;;;10.80;93.10;;;;;;5034914;28;20211;-83
2023/12/26 09:20:39;;;;;;;13.30;4.03;;;10.70;93.70;;;;;;5051981;28;20631;-82
2023/12/26 09:23:04;;;;;;;10.80;3.97;;;10.80;94.50;;;;;;5051459;28;20604;-82
2023/12/26 09:25:30;;;;;;;10.97;2.77;;;10.80;94.80;;;;;;5051669;28;20629;-84
2023/12/26 09:27:55;;;;;;;11.07;2.73;;;10.80;95.60;;;;;;5051576;28;20711;-82
2023/12/26 09:30:21;;;;;;;12.73;3.90;;;10.90;96.30;;;;;;5052742;28;20248;-82
2023/12/26 09:32:47;;;;;;;9.77;2.63;;;10.90;95.70;;;;;;5051088;28;20192;-82
2023/12/26 09:35:12;;;;;;;11.77;2.87;;;11.00;96.40;;;;;;5052514;28;20169;-81
2023/12/26 09:37:38;;;;;;;9.13;2.40;;;11.00;97.10;;;;;;5051305;28;20180;-82
2023/12/26 09:40:08;;;;;;;6.90;2.37;;;11.10;97.40;;;;;;5050641;28;20204;-83
2023/12/26 09:42:34;;;;;;;10.93;2.57;;;11.10;97.80;;;;;;5050660;28;20592;-82
2023/12/26 09:45:00;;;;;;;9.70;2.70;;;11.00;99.50;;;;;;5051231;28;20294;-83
2023/12/26 09:47:29;;;;;;;8.73;2.73;;;11.10;99.90;;;;;;5052217;28;20209;-83
2023/12/26 09:49:55;;;;;;;13.57;3.90;;;11.10;99.90;;;;;;5051359;28;20173;-83
2023/12/26 09:52:22;;;;;;;10.90;3.00;;;11.20;99.90;;;;;;5052615;28;20544;-83
2023/12/26 09:54:49;;;;;;;22.10;10.53;;;11.30;99.90;;;;;;5050697;28;20170;-83
2023/12/26 09:57:15;;;;;;;19.07;7.87;;;11.30;99.90;;;;;;5050981;28;20173;-83
2023/12/26 09:59:43;;;;;;;8.90;2.97;;;11.30;99.90;;;;;;5050800;28;20179;-82
2023/12/26 10:02:12;;;;;;;14.77;2.83;;;11.20;99.90;;;;;;5052039;28;20248;-81
2023/12/26 10:04:39;;;;;;;11.30;2.77;;;11.10;99.90;;;;;;5051055;28;20188;-84
2023/12/26 10:07:05;;;;;;;13.37;3.03;;;11.00;99.90;;;;;;5050998;28;20270;-83
2023/12/26 10:09:31;;;;;;;6.13;2.70;;;11.00;99.90;;;;;;5051006;28;20170;-82
2023/12/26 10:11:57;;;;;;;9.10;2.87;;;11.00;99.90;;;;;;5050962;28;20210;-84
2023/12/26 10:14:30;;;;;;;10.83;3.00;;;11.00;99.90;;;;;;5054562;28;20179;-83
2023/12/26 10:16:57;;;;;;;10.83;2.47;;;10.90;99.90;;;;;;5050708;28;20532;-83
2023/12/26 10:19:23;;;;;;;17.13;7.17;;;10.80;99.90;;;;;;5054294;28;20184;-82
2023/12/26 10:21:50;;;;;;;33.77;18.40;;;10.80;99.90;;;;;;5051207;28;20633;-84
2023/12/26 10:24:17;;;;;;;31.37;16.77;;;10.90;99.00;;;;;;5050764;28;20193;-83
2023/12/26 10:26:43;;;;;;;11.83;2.97;;;11.00;96.60;;;;;;5051020;28;20216;-83
2023/12/26 10:29:13;;;;;;;7.63;2.97;;;10.90;92.00;;;;;;5050916;28;20165;-82
2023/12/26 10:31:40;;;;;;;12.17;2.63;;;10.80;88.80;;;;;;5051471;28;20173;-82
2023/12/26 10:34:14;;;;;;;12.47;3.03;;;10.80;82.10;;;;;;5050624;28;20559;-82
2023/12/26 10:36:50;;;;;;;11.00;2.70;;;10.80;83.10;;;;;;5050849;28;20553;-82
2023/12/26 10:39:17;;;;;;;11.43;3.77;;;10.90;73.10;;;;;;5050067;28;20179;-82
2023/12/26 10:41:47;;;;;;;9.03;3.00;;;10.90;75.80;;;;;;5050968;28;20593;-83
2023/12/26 10:44:17;;;;;;;13.57;5.10;;;10.80;71.60;;;;;;5051577;28;20639;-83
2023/12/26 10:46:44;;;;;;;11.13;4.70;;;10.80;73.90;;;;;;5051021;28;20220;-83
2023/12/26 10:49:13;;;;;;;13.63;6.40;;;10.70;67.50;;;;;;5053052;28;20194;-81
2023/12/26 10:51:43;;;;;;;10.90;2.43;;;10.70;69.50;;;;;;5053671;28;20367;-83
2023/12/26 10:54:17;;;;;;;6.67;2.27;;;10.70;69.80;;;;;;5057174;28;20178;-82
2023/12/26 10:56:43;;;;;;;8.30;2.20;;;10.60;64.70;;;;;;5054365;28;20176;-82
2023/12/26 10:59:11;;;;;;;8.53;2.50;;;10.60;63.40;;;;;;5053958;28;20268;-83
2023/12/26 11:01:54;;;;;;;9.50;2.50;;;10.70;65.00;;;;;;5055421;28;20222;-83
2023/12/26 11:04:19;;;;;;;10.07;2.60;;;10.70;58.00;;;;;;5053784;28;20188;-83
2023/12/26 11:06:45;;;;;;;8.93;3.07;;;10.70;54.70;;;;;;5053846;28;20217;-83
2023/12/26 11:09:11;;;;;;;10.87;3.87;;;10.80;52.30;;;;;;5055155;28;20169;-83
2023/12/26 11:11:38;;;;;;;22.00;10.23;;;10.80;53.00;;;;;;5053768;28;20272;-84
2023/12/26 11:14:05;;;;;;;10.50;4.60;;;10.90;52.70;;;;;;5053003;28;20181;-82
2023/12/26 11:16:32;;;;;;;8.90;2.57;;;10.90;47.10;;;;;;5053698;28;20177;-82
2023/12/26 11:18:58;;;;;;;13.93;2.77;;;10.90;47.70;;;;;;5053731;28;20180;-82
2023/12/26 11:21:24;;;;;;;6.83;2.10;;;11.00;48.60;;;;;;5053509;28;20182;-83
2023/12/26 11:23:49;;;;;;;12.37;2.73;;;11.10;49.50;;;;;;5053761;28;20629;-81
2023/12/26 11:26:16;;;;;;;9.47;2.73;;;11.10;42.70;;;;;;5054750;28;20247;-83
2023/12/26 11:28:44;;;;;;;9.07;3.03;;;11.10;42.20;;;;;;5053437;28;20182;-83
2023/12/26 11:31:12;;;;;;;9.60;3.60;;;11.00;44.10;;;;;;5053216;28;20177;-83
2023/12/26 11:33:39;;;;;;;13.13;4.20;;;11.10;44.50;;;;;;5053455;28;20185;-82
2023/12/26 11:36:06;;;;;;;15.13;5.17;;;11.10;46.40;;;;;;5053859;28;20173;-83
2023/12/26 11:38:31;;;;;;;18.23;7.57;;;11.10;44.20;;;;;;5053421;28;20648;-83
2023/12/26 11:40:57;;;;;;;10.27;2.50;;;11.10;44.50;;;;;;5054729;28;20213;-81
2023/12/26 11:43:23;;;;;;;8.17;2.50;;;11.10;40.10;;;;;;5052793;28;20182;-82
2023/12/26 11:45:49;;;;;;;13.57;2.67;;;11.10;45.20;;;;;;5053185;28;20220;-82
2023/12/26 11:48:14;;;;;;;11.60;2.30;;;11.00;48.00;;;;;;5053403;28;20178;-82
2023/12/26 11:50:40;;;;;;;10.63;1.60;;;11.00;47.30;;;;;;5054352;28;20209;-83
2023/12/26 11:53:06;;;;;;;10.97;2.37;;;10.90;40.40;;;;;;5053509;28;20179;-83
2023/12/26 11:55:32;;;;;;;6.10;2.10;;;10.80;45.20;;;;;;5053193;28;20227;-82
2023/12/26 11:57:57;;;;;;;8.13;2.30;;;10.90;43.10;;;;;;5052383;28;20170;-84
2023/12/26 12:00:23;;;;;;;8.80;2.40;;;11.00;46.50;;;;;;5053494;28;20219;-82
2023/12/26 12:02:49;;;;;;;9.23;2.83;;;11.10;44.40;;;;;;5052782;28;20657;-83
2023/12/26 12:05:15;;;;;;;10.90;2.70;;;11.10;42.80;;;;;;5052315;28;20319;-85
2023/12/26 12:07:40;;;;;;;14.47;2.73;;;11.10;39.20;;;;;;5053293;28;20232;-83
2023/12/26 12:10:09;;;;;;;10.40;2.53;;;11.00;39.80;;;;;;5052966;28;20690;-84
2023/12/26 12:12:35;;;;;;;10.63;2.17;;;11.00;41.00;;;;;;5052570;28;20233;-83
2023/12/26 12:15:01;;;;;;;8.40;2.17;;;10.90;44.40;;;;;;5052819;28;20173;-83
2023/12/26 12:17:27;;;;;;;8.97;2.30;;;10.70;38.80;;;;;;5052661;28;20645;-83
2023/12/26 12:19:52;;;;;;;12.70;2.60;;;10.80;43.60;;;;;;5052892;28;20181;-88
2023/12/26 12:22:24;;;;;;;11.73;2.80;;;10.80;41.40;;;;;;5052987;28;20200;-82
2023/12/26 12:24:51;;;;;;;9.10;2.57;;;10.80;41.30;;;;;;5053232;28;20200;-82
2023/12/26 12:27:16;;;;;;;12.33;2.60;;;10.80;41.30;;;;;;5052611;28;20219;-83
2023/12/26 12:30:01;;;;;;;10.63;2.83;;;11.00;42.70;;;;;;5052739;28;20170;-83
2023/12/26 12:32:36;;;;;;;8.07;2.60;;;11.00;42.00;;;;;;5052442;28;20711;-82
2023/12/26 12:35:16;;;;;;;10.97;3.10;;;11.00;40.90;;;;;;5052491;28;20191;-83
2023/12/26 12:37:44;;;;;;;10.17;3.00;;;10.90;38.50;;;;;;5052305;28;20169;-84
2023/12/26 12:40:10;;;;;;;10.40;2.83;;;10.80;42.50;;;;;;5051916;28;20185;-82